National Weather Service United States Department of Commerce
Click Here for Latest Airport Weather Warnings
 
Latest Huntsville TAF


000
FTUS44 KHUN 160520
TAFHSV
TAF
KHSV 160520Z 1606/1706 VRB04KT P6SM BKN250
FM161500 17008G15KT P6SM SCT120 BKN250
FM170100 19010KT P6SM SCT060 BKN120=

Latest Muscle Shoals TAF


000
FTUS44 KHUN 160520
TAFMSL
TAF
KMSL 160520Z 1606/1706 VRB03KT P6SM BKN250
FM161500 17008G15KT P6SM SCT100 BKN200
FM170100 19010KT P6SM SCT060 BKN120=


Back to Main Huntsville Weather Forecast Office Page